Moosomin, Canada
Current Conditions -  °F | °C
As of 4:00 AM on Thursday 29 Jan 2015 (Local Time) from CYBR Reporting Station
Light Snow Light Snow  
Wind Chill: -2°   Ceiling: 2300
Heat Index: 14°   Visibility: 15mi
Dew Point:   Wind: 16mph
Humidity: 79%   Direction: 320°NW
Pressure: 30.35"   Gusts: NA
Location:  50.15°N, 101.67°W
Report Text: CYBR 291000Z 32014KT 15SM -SN OVC023 M10/M13 A3035 RMK SC8 SLP309
Loading
Personal Weather Stations






























Interactive Weather Map New forecast layout! Learn more

10-Day Weather Forecast

Advertisements
Track Severe Weather on mobile